sensor_id;sensor_type;location;lat;lon;timestamp;temperature;humidity
15083;DHT22;7640;53.116;6.878;2023-07-22T00:00:10;14.40;99.90
15083;DHT22;7640;53.116;6.878;2023-07-22T00:02:41;14.40;99.90
15083;DHT22;7640;53.116;6.878;2023-07-22T00:05:11;14.40;99.90
15083;DHT22;7640;53.116;6.878;2023-07-22T00:07:40;14.40;99.90
15083;DHT22;7640;53.116;6.878;2023-07-22T00:10:09;14.30;99.90
15083;DHT22;7640;53.116;6.878;2023-07-22T00:12:37;14.30;99.90
15083;DHT22;7640;53.116;6.878;2023-07-22T00:15:07;14.30;99.90
15083;DHT22;7640;53.116;6.878;2023-07-22T00:17:39;14.30;99.90
15083;DHT22;7640;53.116;6.878;2023-07-22T00:20:10;14.30;99.90
15083;DHT22;7640;53.116;6.878;2023-07-22T00:22:41;14.40;99.90
15083;DHT22;7640;53.116;6.878;2023-07-22T00:25:10;14.30;99.90
15083;DHT22;7640;53.116;6.878;2023-07-22T00:27:40;14.40;99.90
15083;DHT22;7640;53.116;6.878;2023-07-22T00:30:10;14.40;99.90
15083;DHT22;7640;53.116;6.878;2023-07-22T00:32:40;14.40;99.90
15083;DHT22;7640;53.116;6.878;2023-07-22T00:35:10;14.40;99.90
15083;DHT22;7640;53.116;6.878;2023-07-22T00:37:39;14.40;99.90
15083;DHT22;7640;53.116;6.878;2023-07-22T00:40:09;14.40;99.90
15083;DHT22;7640;53.116;6.878;2023-07-22T00:42:40;14.40;99.90
15083;DHT22;7640;53.116;6.878;2023-07-22T00:45:08;14.40;99.90
15083;DHT22;7640;53.116;6.878;2023-07-22T00:47:37;14.30;99.90
15083;DHT22;7640;53.116;6.878;2023-07-22T00:50:07;14.30;99.90
15083;DHT22;7640;53.116;6.878;2023-07-22T00:52:37;14.30;99.90
15083;DHT22;7640;53.116;6.878;2023-07-22T00:55:07;14.30;99.90
15083;DHT22;7640;53.116;6.878;2023-07-22T00:57:36;14.20;99.90
15083;DHT22;7640;53.116;6.878;2023-07-22T01:00:06;14.20;99.90
15083;DHT22;7640;53.116;6.878;2023-07-22T01:02:39;14.20;99.90
15083;DHT22;7640;53.116;6.878;2023-07-22T01:05:09;14.20;99.90
15083;DHT22;7640;53.116;6.878;2023-07-22T01:07:40;14.20;99.90
15083;DHT22;7640;53.116;6.878;2023-07-22T01:10:09;14.20;99.90
15083;DHT22;7640;53.116;6.878;2023-07-22T01:12:38;14.10;99.90
15083;DHT22;7640;53.116;6.878;2023-07-22T01:15:08;14.10;99.90
15083;DHT22;7640;53.116;6.878;2023-07-22T01:17:37;14.10;99.90
15083;DHT22;7640;53.116;6.878;2023-07-22T01:20:07;14.10;99.90
15083;DHT22;7640;53.116;6.878;2023-07-22T01:22:38;14.10;99.90
15083;DHT22;7640;53.116;6.878;2023-07-22T01:25:09;14.10;99.90
15083;DHT22;7640;53.116;6.878;2023-07-22T01:27:38;14.10;99.90
15083;DHT22;7640;53.116;6.878;2023-07-22T01:30:08;14.10;99.90
15083;DHT22;7640;53.116;6.878;2023-07-22T01:32:37;14.10;99.90
15083;DHT22;7640;53.116;6.878;2023-07-22T01:35:07;14.10;99.90
15083;DHT22;7640;53.116;6.878;2023-07-22T01:37:36;14.10;99.90
15083;DHT22;7640;53.116;6.878;2023-07-22T01:40:11;14.10;99.90
15083;DHT22;7640;53.116;6.878;2023-07-22T01:42:41;14.10;99.90
15083;DHT22;7640;53.116;6.878;2023-07-22T01:45:11;14.00;99.90
15083;DHT22;7640;53.116;6.878;2023-07-22T01:47:40;14.00;99.90
15083;DHT22;7640;53.116;6.878;2023-07-22T01:50:09;14.00;99.90
15083;DHT22;7640;53.116;6.878;2023-07-22T01:52:38;13.90;99.90
15083;DHT22;7640;53.116;6.878;2023-07-22T01:55:09;13.90;99.90
15083;DHT22;7640;53.116;6.878;2023-07-22T01:57:38;13.90;99.90
15083;DHT22;7640;53.116;6.878;2023-07-22T02:00:08;13.90;99.90
15083;DHT22;7640;53.116;6.878;2023-07-22T02:02:39;13.90;99.90
15083;DHT22;7640;53.116;6.878;2023-07-22T02:05:10;13.80;99.90
15083;DHT22;7640;53.116;6.878;2023-07-22T02:07:39;13.80;99.90
15083;DHT22;7640;53.116;6.878;2023-07-22T02:10:09;13.80;99.90
15083;DHT22;7640;53.116;6.878;2023-07-22T02:12:38;13.80;99.90
15083;DHT22;7640;53.116;6.878;2023-07-22T02:15:08;13.80;99.90
15083;DHT22;7640;53.116;6.878;2023-07-22T02:17:37;13.70;99.90
15083;DHT22;7640;53.116;6.878;2023-07-22T02:20:07;13.70;99.90
15083;DHT22;7640;53.116;6.878;2023-07-22T02:22:36;13.70;99.90
15083;DHT22;7640;53.116;6.878;2023-07-22T02:25:06;13.70;99.90
15083;DHT22;7640;53.116;6.878;2023-07-22T02:27:39;13.70;99.90
15083;DHT22;7640;53.116;6.878;2023-07-22T02:30:08;13.60;99.90
15083;DHT22;7640;53.116;6.878;2023-07-22T02:32:39;13.60;99.90
15083;DHT22;7640;53.116;6.878;2023-07-22T02:35:10;13.60;99.90
15083;DHT22;7640;53.116;6.878;2023-07-22T02:37:39;13.60;99.90
15083;DHT22;7640;53.116;6.878;2023-07-22T02:40:08;13.60;99.90
15083;DHT22;7640;53.116;6.878;2023-07-22T02:42:40;13.50;99.90
15083;DHT22;7640;53.116;6.878;2023-07-22T02:45:09;13.50;99.90
15083;DHT22;7640;53.116;6.878;2023-07-22T02:47:39;13.50;99.90
15083;DHT22;7640;53.116;6.878;2023-07-22T02:50:09;13.50;99.90
15083;DHT22;7640;53.116;6.878;2023-07-22T02:52:37;13.50;99.90
15083;DHT22;7640;53.116;6.878;2023-07-22T02:55:09;13.50;99.90
15083;DHT22;7640;53.116;6.878;2023-07-22T02:57:40;13.40;99.90
15083;DHT22;7640;53.116;6.878;2023-07-22T03:00:10;13.40;99.90
15083;DHT22;7640;53.116;6.878;2023-07-22T03:02:40;13.40;99.90
15083;DHT22;7640;53.116;6.878;2023-07-22T03:05:09;13.40;99.90
15083;DHT22;7640;53.116;6.878;2023-07-22T03:07:40;13.30;99.90
15083;DHT22;7640;53.116;6.878;2023-07-22T03:10:09;13.30;99.90
15083;DHT22;7640;53.116;6.878;2023-07-22T03:12:39;13.30;99.90
15083;DHT22;7640;53.116;6.878;2023-07-22T03:15:09;13.30;99.90
15083;DHT22;7640;53.116;6.878;2023-07-22T03:17:40;13.30;99.90
15083;DHT22;7640;53.116;6.878;2023-07-22T03:20:10;13.30;99.90
15083;DHT22;7640;53.116;6.878;2023-07-22T03:22:42;13.20;99.90
15083;DHT22;7640;53.116;6.878;2023-07-22T03:25:11;13.20;99.90
15083;DHT22;7640;53.116;6.878;2023-07-22T03:27:41;13.20;99.90
15083;DHT22;7640;53.116;6.878;2023-07-22T03:30:12;13.20;99.90
15083;DHT22;7640;53.116;6.878;2023-07-22T03:32:42;13.20;99.90
15083;DHT22;7640;53.116;6.878;2023-07-22T03:35:11;13.20;99.90
15083;DHT22;7640;53.116;6.878;2023-07-22T03:37:40;13.20;99.90
15083;DHT22;7640;53.116;6.878;2023-07-22T03:40:10;13.20;99.90
15083;DHT22;7640;53.116;6.878;2023-07-22T03:42:48;13.10;99.90
15083;DHT22;7640;53.116;6.878;2023-07-22T03:45:18;13.20;99.90
15083;DHT22;7640;53.116;6.878;2023-07-22T03:47:49;13.20;99.90
15083;DHT22;7640;53.116;6.878;2023-07-22T03:50:19;13.20;99.90
15083;DHT22;7640;53.116;6.878;2023-07-22T03:52:50;13.20;99.90
15083;DHT22;7640;53.116;6.878;2023-07-22T03:55:19;13.30;99.90
15083;DHT22;7640;53.116;6.878;2023-07-22T03:57:49;13.30;99.90
15083;DHT22;7640;53.116;6.878;2023-07-22T04:00:18;13.30;99.90
15083;DHT22;7640;53.116;6.878;2023-07-22T04:02:48;13.30;99.90
15083;DHT22;7640;53.116;6.878;2023-07-22T04:05:17;13.30;99.90
15083;DHT22;7640;53.116;6.878;2023-07-22T04:07:45;13.40;99.90
15083;DHT22;7640;53.116;6.878;2023-07-22T04:10:14;13.50;99.90
15083;DHT22;7640;53.116;6.878;2023-07-22T04:12:43;13.50;99.90
15083;DHT22;7640;53.116;6.878;2023-07-22T04:15:13;13.60;99.90
15083;DHT22;7640;53.116;6.878;2023-07-22T04:17:42;13.60;99.90
15083;DHT22;7640;53.116;6.878;2023-07-22T04:20:11;13.70;99.90
15083;DHT22;7640;53.116;6.878;2023-07-22T04:22:39;13.80;99.90
15083;DHT22;7640;53.116;6.878;2023-07-22T04:25:09;13.90;99.90
15083;DHT22;7640;53.116;6.878;2023-07-22T04:27:37;14.00;99.90
15083;DHT22;7640;53.116;6.878;2023-07-22T04:30:07;14.00;99.90
15083;DHT22;7640;53.116;6.878;2023-07-22T04:32:37;14.10;99.90
15083;DHT22;7640;53.116;6.878;2023-07-22T04:35:07;14.10;99.90
15083;DHT22;7640;53.116;6.878;2023-07-22T04:37:36;14.20;99.90
15083;DHT22;7640;53.116;6.878;2023-07-22T04:40:06;14.20;99.90
15083;DHT22;7640;53.116;6.878;2023-07-22T04:42:38;14.30;99.90
15083;DHT22;7640;53.116;6.878;2023-07-22T04:45:08;14.40;99.90
15083;DHT22;7640;53.116;6.878;2023-07-22T04:47:39;14.50;99.90
15083;DHT22;7640;53.116;6.878;2023-07-22T04:50:09;14.50;99.90
15083;DHT22;7640;53.116;6.878;2023-07-22T04:52:38;14.50;99.90
15083;DHT22;7640;53.116;6.878;2023-07-22T04:55:09;14.60;99.90
15083;DHT22;7640;53.116;6.878;2023-07-22T04:58:02;14.60;99.90
15083;DHT22;7640;53.116;6.878;2023-07-22T05:00:32;14.60;99.90
15083;DHT22;7640;53.116;6.878;2023-07-22T05:03:03;14.70;99.90
15083;DHT22;7640;53.116;6.878;2023-07-22T05:05:33;14.70;99.90
15083;DHT22;7640;53.116;6.878;2023-07-22T05:08:04;14.80;99.90
15083;DHT22;7640;53.116;6.878;2023-07-22T05:10:35;14.80;99.90
15083;DHT22;7640;53.116;6.878;2023-07-22T05:13:05;14.90;99.90
15083;DHT22;7640;53.116;6.878;2023-07-22T05:15:34;14.90;99.90
15083;DHT22;7640;53.116;6.878;2023-07-22T05:18:05;15.00;99.90
15083;DHT22;7640;53.116;6.878;2023-07-22T05:20:35;15.00;99.90
15083;DHT22;7640;53.116;6.878;2023-07-22T05:23:04;15.00;99.90
15083;DHT22;7640;53.116;6.878;2023-07-22T05:25:33;15.10;99.90
15083;DHT22;7640;53.116;6.878;2023-07-22T05:28:02;15.10;99.90
15083;DHT22;7640;53.116;6.878;2023-07-22T05:30:31;15.20;99.90
15083;DHT22;7640;53.116;6.878;2023-07-22T05:33:04;15.30;99.90
15083;DHT22;7640;53.116;6.878;2023-07-22T05:35:33;15.30;99.90
15083;DHT22;7640;53.116;6.878;2023-07-22T05:38:02;15.40;99.90
15083;DHT22;7640;53.116;6.878;2023-07-22T05:40:32;15.40;99.90
15083;DHT22;7640;53.116;6.878;2023-07-22T05:43:02;15.50;99.90
15083;DHT22;7640;53.116;6.878;2023-07-22T05:45:31;15.50;99.90
15083;DHT22;7640;53.116;6.878;2023-07-22T05:48:00;15.50;99.90
15083;DHT22;7640;53.116;6.878;2023-07-22T05:50:31;15.60;99.90
15083;DHT22;7640;53.116;6.878;2023-07-22T05:53:01;15.60;99.90
15083;DHT22;7640;53.116;6.878;2023-07-22T05:55:29;15.60;99.90
15083;DHT22;7640;53.116;6.878;2023-07-22T05:57:58;15.70;99.90
15083;DHT22;7640;53.116;6.878;2023-07-22T06:00:32;15.70;99.90
15083;DHT22;7640;53.116;6.878;2023-07-22T06:03:02;15.80;99.90
15083;DHT22;7640;53.116;6.878;2023-07-22T06:05:33;15.90;99.90
15083;DHT22;7640;53.116;6.878;2023-07-22T06:08:02;16.00;99.90
15083;DHT22;7640;53.116;6.878;2023-07-22T06:10:32;16.20;99.90
15083;DHT22;7640;53.116;6.878;2023-07-22T06:13:01;16.20;99.90
15083;DHT22;7640;53.116;6.878;2023-07-22T06:15:31;16.40;99.90
15083;DHT22;7640;53.116;6.878;2023-07-22T06:17:59;16.50;99.90
15083;DHT22;7640;53.116;6.878;2023-07-22T06:20:29;16.50;99.90
15083;DHT22;7640;53.116;6.878;2023-07-22T06:23:01;16.60;99.90
15083;DHT22;7640;53.116;6.878;2023-07-22T06:25:30;16.60;99.90
15083;DHT22;7640;53.116;6.878;2023-07-22T06:27:59;16.70;99.90
15083;DHT22;7640;53.116;6.878;2023-07-22T06:30:28;16.80;99.90
15083;DHT22;7640;53.116;6.878;2023-07-22T06:32:58;16.90;99.90
15083;DHT22;7640;53.116;6.878;2023-07-22T06:35:27;17.00;99.90
15083;DHT22;7640;53.116;6.878;2023-07-22T06:37:56;17.10;99.90
15083;DHT22;7640;53.116;6.878;2023-07-22T06:40:26;17.20;99.90
15083;DHT22;7640;53.116;6.878;2023-07-22T06:42:55;17.30;99.90
15083;DHT22;7640;53.116;6.878;2023-07-22T06:45:23;17.50;99.90
15083;DHT22;7640;53.116;6.878;2023-07-22T06:47:53;17.60;99.90
15083;DHT22;7640;53.116;6.878;2023-07-22T06:50:21;17.60;99.90
15083;DHT22;7640;53.116;6.878;2023-07-22T06:52:50;17.60;99.90
15083;DHT22;7640;53.116;6.878;2023-07-22T06:55:19;17.70;99.90
15083;DHT22;7640;53.116;6.878;2023-07-22T06:57:50;17.80;99.90
15083;DHT22;7640;53.116;6.878;2023-07-22T07:00:19;17.90;99.90
15083;DHT22;7640;53.116;6.878;2023-07-22T07:02:48;18.00;99.90
15083;DHT22;7640;53.116;6.878;2023-07-22T07:05:16;18.00;99.90
15083;DHT22;7640;53.116;6.878;2023-07-22T07:07:45;18.10;99.90
15083;DHT22;7640;53.116;6.878;2023-07-22T07:10:14;18.20;99.90
15083;DHT22;7640;53.116;6.878;2023-07-22T07:12:42;18.30;99.90
15083;DHT22;7640;53.116;6.878;2023-07-22T07:15:13;18.40;99.90
15083;DHT22;7640;53.116;6.878;2023-07-22T07:17:41;18.50;99.90
15083;DHT22;7640;53.116;6.878;2023-07-22T07:20:10;18.70;99.90
15083;DHT22;7640;53.116;6.878;2023-07-22T07:22:41;18.80;99.90
15083;DHT22;7640;53.116;6.878;2023-07-22T07:25:10;18.90;99.90
15083;DHT22;7640;53.116;6.878;2023-07-22T07:27:39;18.90;99.90
15083;DHT22;7640;53.116;6.878;2023-07-22T07:30:08;18.90;99.90
15083;DHT22;7640;53.116;6.878;2023-07-22T07:32:39;19.00;99.90
15083;DHT22;7640;53.116;6.878;2023-07-22T07:35:10;19.00;99.90
15083;DHT22;7640;53.116;6.878;2023-07-22T07:37:38;19.10;99.90
15083;DHT22;7640;53.116;6.878;2023-07-22T07:40:08;19.10;99.90
15083;DHT22;7640;53.116;6.878;2023-07-22T07:42:37;19.10;99.90
15083;DHT22;7640;53.116;6.878;2023-07-22T07:45:08;19.20;99.90
15083;DHT22;7640;53.116;6.878;2023-07-22T07:47:38;19.20;99.90
15083;DHT22;7640;53.116;6.878;2023-07-22T07:50:08;19.20;99.90
15083;DHT22;7640;53.116;6.878;2023-07-22T07:52:37;19.20;99.90
15083;DHT22;7640;53.116;6.878;2023-07-22T07:55:07;19.20;99.90
15083;DHT22;7640;53.116;6.878;2023-07-22T07:57:36;19.20;99.90
15083;DHT22;7640;53.116;6.878;2023-07-22T08:00:06;19.30;99.90
15083;DHT22;7640;53.116;6.878;2023-07-22T08:02:36;19.40;99.90
15083;DHT22;7640;53.116;6.878;2023-07-22T08:05:08;19.50;99.90
15083;DHT22;7640;53.116;6.878;2023-07-22T08:07:37;19.60;99.90
15083;DHT22;7640;53.116;6.878;2023-07-22T08:10:06;19.60;99.90
15083;DHT22;7640;53.116;6.878;2023-07-22T08:12:36;19.60;99.90
15083;DHT22;7640;53.116;6.878;2023-07-22T08:15:06;19.60;99.90
15083;DHT22;7640;53.116;6.878;2023-07-22T08:17:36;19.70;99.90
15083;DHT22;7640;53.116;6.878;2023-07-22T08:20:07;19.70;99.90
15083;DHT22;7640;53.116;6.878;2023-07-22T08:22:37;19.80;99.90
15083;DHT22;7640;53.116;6.878;2023-07-22T08:25:06;19.90;99.90
15083;DHT22;7640;53.116;6.878;2023-07-22T08:27:36;20.10;99.90
15083;DHT22;7640;53.116;6.878;2023-07-22T08:30:07;20.20;99.90
15083;DHT22;7640;53.116;6.878;2023-07-22T08:32:38;20.40;99.90
15083;DHT22;7640;53.116;6.878;2023-07-22T08:35:08;20.70;99.90
15083;DHT22;7640;53.116;6.878;2023-07-22T08:37:38;20.90;99.90
15083;DHT22;7640;53.116;6.878;2023-07-22T08:40:09;21.10;99.90
15083;DHT22;7640;53.116;6.878;2023-07-22T08:42:38;21.20;99.90
15083;DHT22;7640;53.116;6.878;2023-07-22T08:45:10;21.30;99.90
15083;DHT22;7640;53.116;6.878;2023-07-22T08:47:42;21.40;99.90
15083;DHT22;7640;53.116;6.878;2023-07-22T08:50:20;21.40;99.90
15083;DHT22;7640;53.116;6.878;2023-07-22T08:52:49;21.40;99.90
15083;DHT22;7640;53.116;6.878;2023-07-22T08:55:19;21.40;99.90
15083;DHT22;7640;53.116;6.878;2023-07-22T08:57:48;21.40;99.90
15083;DHT22;7640;53.116;6.878;2023-07-22T09:00:18;21.40;99.90
15083;DHT22;7640;53.116;6.878;2023-07-22T09:02:50;21.50;99.90
15083;DHT22;7640;53.116;6.878;2023-07-22T09:05:22;21.50;99.90
15083;DHT22;7640;53.116;6.878;2023-07-22T09:07:50;21.60;99.90
15083;DHT22;7640;53.116;6.878;2023-07-22T09:10:21;21.60;99.90
15083;DHT22;7640;53.116;6.878;2023-07-22T09:12:51;21.60;99.90
15083;DHT22;7640;53.116;6.878;2023-07-22T09:15:20;21.60;99.90
15083;DHT22;7640;53.116;6.878;2023-07-22T09:17:50;21.60;99.90
15083;DHT22;7640;53.116;6.878;2023-07-22T09:20:21;21.50;99.90
15083;DHT22;7640;53.116;6.878;2023-07-22T09:22:51;21.50;99.90
15083;DHT22;7640;53.116;6.878;2023-07-22T09:25:38;21.50;99.90
15083;DHT22;7640;53.116;6.878;2023-07-22T09:28:07;21.40;99.90
15083;DHT22;7640;53.116;6.878;2023-07-22T09:30:38;21.40;99.90
15083;DHT22;7640;53.116;6.878;2023-07-22T09:33:19;21.30;99.90
15083;DHT22;7640;53.116;6.878;2023-07-22T09:35:51;21.30;99.90
15083;DHT22;7640;53.116;6.878;2023-07-22T09:38:23;21.20;99.90
15083;DHT22;7640;53.116;6.878;2023-07-22T09:40:53;21.20;99.90
15083;DHT22;7640;53.116;6.878;2023-07-22T09:43:23;21.00;99.90
15083;DHT22;7640;53.116;6.878;2023-07-22T09:45:53;20.80;99.90
15083;DHT22;7640;53.116;6.878;2023-07-22T09:48:25;20.60;99.90
15083;DHT22;7640;53.116;6.878;2023-07-22T09:50:59;20.50;99.90
15083;DHT22;7640;53.116;6.878;2023-07-22T09:53:28;20.40;99.90
15083;DHT22;7640;53.116;6.878;2023-07-22T09:56:03;20.40;99.90
15083;DHT22;7640;53.116;6.878;2023-07-22T09:58:32;20.40;99.90
15083;DHT22;7640;53.116;6.878;2023-07-22T10:01:02;20.40;99.90
15083;DHT22;7640;53.116;6.878;2023-07-22T10:03:32;20.50;99.90
15083;DHT22;7640;53.116;6.878;2023-07-22T10:06:03;20.50;99.90
15083;DHT22;7640;53.116;6.878;2023-07-22T10:08:35;20.60;99.90
15083;DHT22;7640;53.116;6.878;2023-07-22T10:11:06;20.70;99.90
15083;DHT22;7640;53.116;6.878;2023-07-22T10:13:36;20.80;99.90
15083;DHT22;7640;53.116;6.878;2023-07-22T10:16:07;20.90;99.90
15083;DHT22;7640;53.116;6.878;2023-07-22T10:18:36;21.00;99.90
15083;DHT22;7640;53.116;6.878;2023-07-22T10:21:07;21.10;99.90
15083;DHT22;7640;53.116;6.878;2023-07-22T10:23:36;21.10;99.90
15083;DHT22;7640;53.116;6.878;2023-07-22T10:26:06;21.10;99.90
15083;DHT22;7640;53.116;6.878;2023-07-22T10:28:37;21.10;99.90
15083;DHT22;7640;53.116;6.878;2023-07-22T10:31:07;21.10;99.90
15083;DHT22;7640;53.116;6.878;2023-07-22T10:33:36;21.00;99.90
15083;DHT22;7640;53.116;6.878;2023-07-22T10:36:08;20.90;99.90
15083;DHT22;7640;53.116;6.878;2023-07-22T10:38:38;20.90;99.90
15083;DHT22;7640;53.116;6.878;2023-07-22T10:41:14;20.90;99.90
15083;DHT22;7640;53.116;6.878;2023-07-22T10:43:54;21.00;99.90
15083;DHT22;7640;53.116;6.878;2023-07-22T10:46:34;21.00;99.90
15083;DHT22;7640;53.116;6.878;2023-07-22T10:49:13;21.10;99.90
15083;DHT22;7640;53.116;6.878;2023-07-22T10:51:49;21.10;99.90
15083;DHT22;7640;53.116;6.878;2023-07-22T10:54:32;21.20;99.90
15083;DHT22;7640;53.116;6.878;2023-07-22T10:57:04;21.20;99.90
15083;DHT22;7640;53.116;6.878;2023-07-22T10:59:51;21.00;99.90
15083;DHT22;7640;53.116;6.878;2023-07-22T11:02:24;20.80;99.90
15083;DHT22;7640;53.116;6.878;2023-07-22T11:04:56;20.70;99.90
15083;DHT22;7640;53.116;6.878;2023-07-22T11:07:33;20.50;99.90
15083;DHT22;7640;53.116;6.878;2023-07-22T11:10:13;20.50;99.90
15083;DHT22;7640;53.116;6.878;2023-07-22T11:12:44;20.40;99.90
15083;DHT22;7640;53.116;6.878;2023-07-22T11:15:15;20.30;99.90
15083;DHT22;7640;53.116;6.878;2023-07-22T11:17:46;20.20;99.90
15083;DHT22;7640;53.116;6.878;2023-07-22T11:20:15;20.10;99.90
15083;DHT22;7640;53.116;6.878;2023-07-22T11:22:46;19.90;99.90
15083;DHT22;7640;53.116;6.878;2023-07-22T11:25:18;19.90;99.90
15083;DHT22;7640;53.116;6.878;2023-07-22T11:27:48;19.80;99.90
15083;DHT22;7640;53.116;6.878;2023-07-22T11:30:17;19.70;99.90
15083;DHT22;7640;53.116;6.878;2023-07-22T11:32:46;19.60;99.90
15083;DHT22;7640;53.116;6.878;2023-07-22T11:35:17;19.40;99.90
15083;DHT22;7640;53.116;6.878;2023-07-22T11:37:49;19.30;99.90
15083;DHT22;7640;53.116;6.878;2023-07-22T11:40:18;19.30;99.90
15083;DHT22;7640;53.116;6.878;2023-07-22T11:42:46;19.20;99.90
15083;DHT22;7640;53.116;6.878;2023-07-22T11:45:18;19.20;99.90
15083;DHT22;7640;53.116;6.878;2023-07-22T11:47:46;19.20;99.90
15083;DHT22;7640;53.116;6.878;2023-07-22T11:50:15;19.20;99.90
15083;DHT22;7640;53.116;6.878;2023-07-22T11:52:51;19.20;99.90
15083;DHT22;7640;53.116;6.878;2023-07-22T11:55:23;19.10;99.90
15083;DHT22;7640;53.116;6.878;2023-07-22T11:58:02;19.00;99.90
15083;DHT22;7640;53.116;6.878;2023-07-22T12:00:33;18.90;99.90
15083;DHT22;7640;53.116;6.878;2023-07-22T12:03:05;18.80;99.90
15083;DHT22;7640;53.116;6.878;2023-07-22T12:05:36;18.70;99.90
15083;DHT22;7640;53.116;6.878;2023-07-22T12:08:15;18.60;99.90
15083;DHT22;7640;53.116;6.878;2023-07-22T12:10:56;18.60;99.90
15083;DHT22;7640;53.116;6.878;2023-07-22T12:13:26;18.50;99.90
15083;DHT22;7640;53.116;6.878;2023-07-22T12:16:01;18.50;99.90
15083;DHT22;7640;53.116;6.878;2023-07-22T12:18:41;18.50;99.90
15083;DHT22;7640;53.116;6.878;2023-07-22T12:21:11;18.50;99.90
15083;DHT22;7640;53.116;6.878;2023-07-22T12:23:42;18.50;99.90
15083;DHT22;7640;53.116;6.878;2023-07-22T12:26:11;18.50;99.90
15083;DHT22;7640;53.116;6.878;2023-07-22T12:28:40;18.60;99.90
15083;DHT22;7640;53.116;6.878;2023-07-22T12:31:08;18.70;99.90
15083;DHT22;7640;53.116;6.878;2023-07-22T12:33:37;18.70;99.90
15083;DHT22;7640;53.116;6.878;2023-07-22T12:36:07;18.70;99.90
15083;DHT22;7640;53.116;6.878;2023-07-22T12:38:36;18.80;99.90
15083;DHT22;7640;53.116;6.878;2023-07-22T12:41:07;18.90;99.90
15083;DHT22;7640;53.116;6.878;2023-07-22T12:43:36;18.90;99.90
15083;DHT22;7640;53.116;6.878;2023-07-22T12:46:06;18.90;99.90
15083;DHT22;7640;53.116;6.878;2023-07-22T12:48:35;18.90;99.90
15083;DHT22;7640;53.116;6.878;2023-07-22T12:51:04;18.90;99.90
15083;DHT22;7640;53.116;6.878;2023-07-22T12:53:33;18.90;99.90
15083;DHT22;7640;53.116;6.878;2023-07-22T12:56:03;18.90;99.90
15083;DHT22;7640;53.116;6.878;2023-07-22T12:58:34;18.80;99.90
15083;DHT22;7640;53.116;6.878;2023-07-22T13:01:03;18.70;99.90
15083;DHT22;7640;53.116;6.878;2023-07-22T13:03:32;18.70;99.90
15083;DHT22;7640;53.116;6.878;2023-07-22T13:06:01;18.60;99.90
15083;DHT22;7640;53.116;6.878;2023-07-22T13:08:31;18.50;99.90
15083;DHT22;7640;53.116;6.878;2023-07-22T13:11:00;18.50;99.90
15083;DHT22;7640;53.116;6.878;2023-07-22T13:13:28;18.50;99.90
15083;DHT22;7640;53.116;6.878;2023-07-22T13:16:00;18.50;99.90
15083;DHT22;7640;53.116;6.878;2023-07-22T13:18:28;18.50;99.90
15083;DHT22;7640;53.116;6.878;2023-07-22T13:20:57;18.50;99.90
15083;DHT22;7640;53.116;6.878;2023-07-22T13:23:26;18.50;99.90
15083;DHT22;7640;53.116;6.878;2023-07-22T13:25:54;18.50;99.90
15083;DHT22;7640;53.116;6.878;2023-07-22T13:28:23;18.50;99.90
15083;DHT22;7640;53.116;6.878;2023-07-22T13:30:53;18.50;99.90
15083;DHT22;7640;53.116;6.878;2023-07-22T13:33:23;18.40;99.90
15083;DHT22;7640;53.116;6.878;2023-07-22T13:35:52;18.40;99.90
15083;DHT22;7640;53.116;6.878;2023-07-22T13:38:22;18.30;99.90
15083;DHT22;7640;53.116;6.878;2023-07-22T13:40:52;18.20;99.90
15083;DHT22;7640;53.116;6.878;2023-07-22T13:43:23;18.20;99.90
15083;DHT22;7640;53.116;6.878;2023-07-22T13:45:52;18.20;99.90
15083;DHT22;7640;53.116;6.878;2023-07-22T13:48:23;18.20;99.90
15083;DHT22;7640;53.116;6.878;2023-07-22T13:50:52;18.20;99.90
15083;DHT22;7640;53.116;6.878;2023-07-22T13:53:20;18.20;99.90
15083;DHT22;7640;53.116;6.878;2023-07-22T13:55:49;18.20;99.90
15083;DHT22;7640;53.116;6.878;2023-07-22T13:58:19;18.20;99.90
15083;DHT22;7640;53.116;6.878;2023-07-22T14:00:48;18.20;99.90
15083;DHT22;7640;53.116;6.878;2023-07-22T14:03:17;18.20;99.90
15083;DHT22;7640;53.116;6.878;2023-07-22T14:05:47;18.20;99.90
15083;DHT22;7640;53.116;6.878;2023-07-22T14:08:16;18.20;99.90
15083;DHT22;7640;53.116;6.878;2023-07-22T14:10:45;18.20;99.90
15083;DHT22;7640;53.116;6.878;2023-07-22T14:13:13;18.30;99.90
15083;DHT22;7640;53.116;6.878;2023-07-22T14:15:42;18.30;99.90
15083;DHT22;7640;53.116;6.878;2023-07-22T14:18:10;18.30;99.90
15083;DHT22;7640;53.116;6.878;2023-07-22T14:20:43;18.50;99.90
15083;DHT22;7640;53.116;6.878;2023-07-22T14:23:14;18.60;99.90
15083;DHT22;7640;53.116;6.878;2023-07-22T14:25:43;18.70;99.90
15083;DHT22;7640;53.116;6.878;2023-07-22T14:28:11;18.70;99.90
15083;DHT22;7640;53.116;6.878;2023-07-22T14:30:40;18.80;99.90
15083;DHT22;7640;53.116;6.878;2023-07-22T14:33:12;18.90;99.90
15083;DHT22;7640;53.116;6.878;2023-07-22T14:35:40;19.00;99.90
15083;DHT22;7640;53.116;6.878;2023-07-22T14:38:10;19.10;99.90
15083;DHT22;7640;53.116;6.878;2023-07-22T14:40:40;19.20;99.90
15083;DHT22;7640;53.116;6.878;2023-07-22T14:43:09;19.30;99.90
15083;DHT22;7640;53.116;6.878;2023-07-22T14:45:37;19.30;99.90
15083;DHT22;7640;53.116;6.878;2023-07-22T14:48:06;19.30;99.90
15083;DHT22;7640;53.116;6.878;2023-07-22T14:50:35;19.30;99.90
15083;DHT22;7640;53.116;6.878;2023-07-22T14:53:03;19.30;99.90
15083;DHT22;7640;53.116;6.878;2023-07-22T14:55:32;19.20;99.90
15083;DHT22;7640;53.116;6.878;2023-07-22T14:58:04;19.30;99.90
15083;DHT22;7640;53.116;6.878;2023-07-22T15:00:33;19.30;99.90
15083;DHT22;7640;53.116;6.878;2023-07-22T15:03:02;19.30;99.90
15083;DHT22;7640;53.116;6.878;2023-07-22T15:05:31;19.30;99.90
15083;DHT22;7640;53.116;6.878;2023-07-22T15:08:00;19.40;99.90
15083;DHT22;7640;53.116;6.878;2023-07-22T15:10:29;19.50;99.90
15083;DHT22;7640;53.116;6.878;2023-07-22T15:12:58;19.50;99.90
15083;DHT22;7640;53.116;6.878;2023-07-22T15:15:28;19.60;99.90
15083;DHT22;7640;53.116;6.878;2023-07-22T15:17:58;19.60;99.90
15083;DHT22;7640;53.116;6.878;2023-07-22T15:20:27;19.70;99.90
15083;DHT22;7640;53.116;6.878;2023-07-22T15:22:56;19.70;99.90
15083;DHT22;7640;53.116;6.878;2023-07-22T15:25:24;19.70;99.90
15083;DHT22;7640;53.116;6.878;2023-07-22T15:27:53;19.70;99.90
15083;DHT22;7640;53.116;6.878;2023-07-22T15:30:22;19.70;99.90
15083;DHT22;7640;53.116;6.878;2023-07-22T15:32:52;19.70;99.90
15083;DHT22;7640;53.116;6.878;2023-07-22T15:35:20;19.70;99.90
15083;DHT22;7640;53.116;6.878;2023-07-22T15:37:50;19.70;99.90
15083;DHT22;7640;53.116;6.878;2023-07-22T15:40:20;19.80;99.90
15083;DHT22;7640;53.116;6.878;2023-07-22T15:42:49;19.80;99.90
15083;DHT22;7640;53.116;6.878;2023-07-22T15:45:17;19.70;99.90
15083;DHT22;7640;53.116;6.878;2023-07-22T15:47:46;19.70;99.90
15083;DHT22;7640;53.116;6.878;2023-07-22T15:50:16;19.60;99.90
15083;DHT22;7640;53.116;6.878;2023-07-22T15:52:45;19.40;99.90
15083;DHT22;7640;53.116;6.878;2023-07-22T15:55:14;19.20;99.90
15083;DHT22;7640;53.116;6.878;2023-07-22T15:57:42;19.10;99.90
15083;DHT22;7640;53.116;6.878;2023-07-22T16:00:11;18.90;99.90
15083;DHT22;7640;53.116;6.878;2023-07-22T16:02:40;18.80;99.90